Welcome to our Virtual Airline
Sign-in:

Flight KHKDIV

  • Submitted By: Karl-Heinz Klotz
  • Departure Airport: Bell Island Hot Springs (KBE)
  • Arrival Airport: Yes Bay Lodge SPB (78K)
  • Aircraft: ICON A5 (N0A5MM)
  • Flight Time: 00.07.24
  • Date Submitted: 21/04/25
  • Route: DIRECT
  • Status: Accepted
Flight Details
Gross Revenue:
(1 load / $ 0.00 per unit
$ 0.00
Fuel Cost:
(0.907185 fuel used @ 0 / unit)
$ 0.00

Additional Log Information:

View Log

[21:34] ----- Flight Opened -----
[21:34] Cigar Box - 1.1.4.0
[21:34] FS:
[21:34] FSUIPC: v7,008
[21:34] Flight Number: KHKDIV
[21:34] FS Aircraft: Icon A5 Asobo
[21:34] FS Model: TT:ATCCOM.AC_MODEL A5.0
[21:34] FS Type: TT:ATCCOM.ATC_NAME_ICON
[21:34] Departure: KBE
[21:34] Arrival: 78K
[21:34] Flight Level: 3000
[21:34] Flight Type: H
[21:34] Passengers: 1
[21:34] FOB: 36 lbs
[21:34] Gate: n/a
[21:34] NOTE: Parking Brake Ignored
[21:34] Crash Detection: Disabled
[21:34] Crash Detection Aircraft: Disabled
[21:34] Engines: 1 Piston
[21:34] NOTE: Boarding has started
[21:34] Parking Brake: Engaged
[21:34] Landing Gear: Retracted
[21:34] Flaps: Position 1
[21:34] Light Data: Navigation ON
[21:34] Light Data: Recognition lights ON
[21:34] Light Data: Wing lights ON
[21:34] Light Data: Logo lights ON
[21:34] Main Door Closed
[21:34] COM1: 122.90
[21:34] COM2: 124.85
[21:34] Transponder: 7000
[21:34] NAV1: 110.50
[21:34] NAV2: 110.50
[21:34] ADF1: 890.0
[21:34] ADF2: 890.0
[21:34] Navigation Mode: GPS
[21:34] Navigation Mode: GPS
[21:35] Flaps: Position 0
[21:35] Engine 1: Started
[21:35] NOTE: Taxi started
[21:36] Flaps: Position 1
[21:36] Flaps: Position 0
[21:37] Engine 1: Stopped
[21:38] Engine 1: Started
[21:38] Light Data: Beacon ON
[21:38] Light Data: Strobe lights ON
[21:38] Light Data: Instrument lights ON
[21:38] Light Data: Landing lights ON
[21:38] Flaps: Position 1
[21:38] NOTE: ----- TAKE OFF -----
[21:38] GS: 52 knots
[21:38] TAS: 53 knots
[21:38] IAS: 51 knots
[21:38] VS: 61 fpm
[21:38] FOB: 36 lbs
[21:38] Heading: 229°
[21:38] Pitch: 3°
[21:38] Bank: 0°
[21:38] Aircraft Weight: 1426,53 lbs
[21:38] Nearest Airport: KBE
[21:38] Distance: 0,78 miles
[21:38] Runway: ???
[21:38] Ground Surface: Water
[21:38] Ground Condition: Normal
[21:38] NOTE: Weather Report
[21:38] Wind Heading: 246°
[21:38] Wind Speed: 1 knots
[21:38] OAT: 15° C
[21:38] TAT: 15° C
[21:38] Precipitation: None
[21:38] Dew Point: 0° C
[21:38] Visibility: 86 miles
[21:38] METAR: KBEA 251935Z AUTO 14007KT 10SM CLR 32/16 A2996 RMK AO2 T03180160 KBEH 251911Z AUTO VRB06G15KT 10SM BKN025 05/M03 A3015 RMK AO2 T00501028 KBED 251851Z 08007KT 10SM BKN017 OVC043 12/07 A2968 RMK AO2 SLP063 T01220067 KBEC 251915Z AUTO 19021G29KT 10SM CLR 22/10 A2983 RMK AO2 T02230095
[21:38] NOTE: Climb started
[21:38] View Mode: Virtual Cockpit
[21:39] Flaps: Position 0
[21:39] GS: 79 knots
[21:39] TAS: 81 knots
[21:39] IAS: 79 knots
[21:39] VS: 692 fpm
[21:42] Flaps: Position 1
[21:42] GS: 93 knots
[21:42] TAS: 96 knots
[21:42] IAS: 95 knots
[21:42] VS: 79 fpm
[21:44] Flaps: Position 2
[21:44] GS: 71 knots
[21:44] TAS: 74 knots
[21:44] IAS: 73 knots
[21:44] VS: -191 fpm
[21:44] NOTE: ----- LANDED -----
[21:44] Landing Rate: -76,13 fpm
[21:44] GS: 46 knots
[21:44] TAS: 49 knots
[21:44] IAS: 48 knots
[21:44] VS: -66 fpm
[21:44] FOB: 33 lbs
[21:44] Heading: 276°
[21:44] Pitch: 3°
[21:44] Bank: 0°
[21:44] Aircraft Weight: 1423,75 lbs
[21:44] Nearest Airport: GF21
[21:44] Distance: 0,17 miles
[21:44] Runway: ???
[21:44] Ground Surface: Water
[21:44] Ground Condition: Normal
[21:44] NOTE: Weather Report
[21:44] Wind Heading: 243°
[21:44] Wind Speed: 1 knots
[21:44] OAT: 15° C
[21:44] TAT: 15° C
[21:44] Precipitation: None
[21:44] Dew Point: 0° C
[21:44] Visibility: 86 miles
[21:44] METAR:
[21:44] View Mode: Virtual Cockpit
[21:44] NOTE: Taxi started
[21:44] NOTE: Arrived
[21:45] Flaps: Position 1
[21:45] Flaps: Position 0
[21:46] Engine 1: Stopped
[21:46] Light Data: Beacon OFF
[21:46] Light Data: Instrument lights OFF
[21:46] Light Data: Landing lights OFF
[21:46] Light Data: Strobe lights OFF
[21:46] Gate: n/a
[21:46] NOTE: Flight Completed
[21:46] FS Aircraft: Icon A5 Asobo
[21:46] FS Model: TT:ATCCOM.AC_MODEL A5.0
[21:46] FS Type: TT:ATCCOM.ATC_NAME_ICON
[21:46] FOB: 33 lbs
[21:46] Fuel Used: 2 lbs
[21:46] Flight Time: 00:07:24
[21:46] Flight Time (Dawn): 00:00:00
[21:46] Flight Time (Day): 00:07:24
[21:46] Flight Time (Dusk): 00:00:00
[21:46] Flight Time (Night): 00:00:00
[21:46] Total Landings: 1
[21:46] MaxSim Rate: 1x
[21:46] Cigar Box - 1.1.4.0
[21:46] ----- Flight Closed -----

Route Map